createdAt,value
2023-03-26T00:01:29.669Z,96244.56
2023-03-26T00:03:57.991Z,96233.00
2023-03-26T00:06:36.764Z,96238.06
2023-03-26T00:09:04.856Z,96240.09
2023-03-26T00:11:31.803Z,96234.00
2023-03-26T00:13:58.970Z,96243.38
2023-03-26T00:16:31.301Z,96245.22
2023-03-26T00:19:00.050Z,96240.72
2023-03-26T00:21:29.031Z,96250.22
2023-03-26T00:24:04.479Z,96229.69
2023-03-26T00:26:33.727Z,96230.50
2023-03-26T00:29:03.363Z,96234.97
2023-03-26T00:31:31.373Z,96226.78
2023-03-26T00:33:58.452Z,96222.34
2023-03-26T00:36:26.740Z,96231.88
2023-03-26T00:38:54.470Z,96235.09
2023-03-26T00:41:25.951Z,96232.72
2023-03-26T00:43:59.837Z,96236.03
2023-03-26T00:46:31.138Z,96231.13
2023-03-26T00:49:00.585Z,96235.72
2023-03-26T00:51:28.791Z,96244.84
2023-03-26T00:53:57.400Z,96254.13
2023-03-26T00:56:24.777Z,96258.31
2023-03-26T00:58:51.809Z,96256.66
2023-03-26T01:01:28.742Z,96249.84
2023-03-26T01:06:36.048Z,96276.34
2023-03-26T01:09:34.916Z,96275.59
2023-03-26T01:12:06.752Z,96265.50
2023-03-26T01:14:33.808Z,96250.13
2023-03-26T01:17:03.814Z,96267.22
2023-03-26T01:19:38.103Z,96263.09
2023-03-26T01:22:09.694Z,96269.09
2023-03-26T01:24:37.640Z,96281.16
2023-03-26T01:27:33.567Z,96303.59
2023-03-26T01:30:22.422Z,96270.97
2023-03-26T01:33:22.054Z,96278.88
2023-03-26T01:35:52.326Z,96268.28
2023-03-26T01:38:46.576Z,96256.38
2023-03-26T01:41:32.322Z,96275.31
2023-03-26T01:44:21.458Z,96251.75
2023-03-26T01:46:50.039Z,96239.56
2023-03-26T01:49:18.823Z,96245.81
2023-03-26T01:51:45.842Z,96248.81
2023-03-26T01:54:17.071Z,96253.28
2023-03-26T01:57:06.023Z,96260.56
2023-03-26T01:59:51.096Z,96263.78
2023-03-26T02:02:27.925Z,96252.97
2023-03-26T02:05:05.294Z,96247.19
2023-03-26T02:07:44.712Z,96249.31
2023-03-26T02:10:21.188Z,96253.53
2023-03-26T02:12:48.253Z,96237.63
2023-03-26T02:15:15.705Z,96283.03
2023-03-26T02:17:43.011Z,96298.88
2023-03-26T02:20:12.313Z,96298.13
2023-03-26T02:22:45.930Z,96295.13
2023-03-26T02:25:18.376Z,96312.91
2023-03-26T02:27:47.100Z,96310.50
2023-03-26T02:30:17.688Z,96309.47
2023-03-26T02:32:47.705Z,96322.75
2023-03-26T02:35:14.770Z,96336.47
2023-03-26T02:37:42.256Z,96318.16
2023-03-26T02:40:17.570Z,96298.06
2023-03-26T02:42:47.294Z,96329.56
2023-03-26T02:45:14.903Z,96324.16
2023-03-26T02:48:02.391Z,96280.28
2023-03-26T02:50:54.587Z,96321.91
2023-03-26T02:53:41.387Z,96317.31
2023-03-26T02:56:28.942Z,96311.69
2023-03-26T02:59:34.266Z,96311.50
2023-03-26T03:02:29.468Z,96306.72
2023-03-26T03:05:05.792Z,96293.59
2023-03-26T03:07:37.995Z,96310.56
2023-03-26T03:10:08.457Z,96294.75
2023-03-26T03:13:01.425Z,96307.66
2023-03-26T03:15:28.581Z,96322.75
2023-03-26T03:17:55.700Z,96305.56
2023-03-26T03:20:23.198Z,96324.50
2023-03-26T03:22:50.438Z,96286.09
2023-03-26T03:25:17.696Z,96317.44
2023-03-26T03:27:47.926Z,96316.38
2023-03-26T03:30:15.406Z,96305.00
2023-03-26T03:33:04.329Z,96320.94
2023-03-26T03:35:32.014Z,96298.97
2023-03-26T03:38:00.459Z,96306.56
2023-03-26T03:40:30.077Z,96300.50
2023-03-26T03:42:57.215Z,96306.06
2023-03-26T03:45:34.113Z,96320.19
2023-03-26T03:48:12.026Z,96317.06
2023-03-26T03:50:43.025Z,96304.66
2023-03-26T03:53:26.255Z,96314.63
2023-03-26T03:55:56.812Z,96307.34
2023-03-26T03:58:31.086Z,96296.75
2023-03-26T04:01:05.573Z,96309.31
2023-03-26T04:03:57.801Z,96285.91
2023-03-26T04:06:35.326Z,96327.41
2023-03-26T04:09:02.268Z,96307.41
2023-03-26T04:11:30.175Z,96321.03
2023-03-26T04:14:13.383Z,96317.75
2023-03-26T04:17:05.986Z,96282.38
2023-03-26T04:19:35.663Z,96323.50
2023-03-26T04:22:03.139Z,96316.00
2023-03-26T04:24:38.438Z,96329.66
2023-03-26T04:27:31.588Z,96337.16
2023-03-26T04:30:16.730Z,96335.41
2023-03-26T04:32:49.011Z,96327.28
2023-03-26T04:35:18.307Z,96326.16
2023-03-26T04:37:50.588Z,96331.34
2023-03-26T04:40:23.010Z,96334.59
2023-03-26T04:43:02.815Z,96345.19
2023-03-26T04:45:48.217Z,96343.53
2023-03-26T04:48:16.790Z,96351.66
2023-03-26T04:50:45.298Z,96339.63
2023-03-26T04:53:16.340Z,96349.63
2023-03-26T04:56:15.401Z,96360.75
2023-03-26T04:59:06.157Z,96340.28
2023-03-26T05:01:38.307Z,96323.88
2023-03-26T05:04:06.830Z,96362.22
2023-03-26T05:06:34.491Z,96359.53
2023-03-26T05:09:08.690Z,96337.16
2023-03-26T05:11:56.664Z,96368.06
2023-03-26T05:14:23.775Z,96372.69
2023-03-26T05:16:53.309Z,96367.50
2023-03-26T05:19:20.943Z,96370.63
2023-03-26T05:21:48.044Z,96352.47
2023-03-26T05:24:15.198Z,96390.19
2023-03-26T05:26:42.232Z,96391.84
2023-03-26T05:29:09.234Z,96400.16
2023-03-26T05:31:41.486Z,96411.88
2023-03-26T05:34:08.467Z,96410.53
2023-03-26T05:36:35.595Z,96399.72
2023-03-26T05:39:30.470Z,96414.09
2023-03-26T05:42:20.216Z,96410.03
2023-03-26T05:45:11.046Z,96392.06
2023-03-26T05:47:38.317Z,96389.56
2023-03-26T05:50:07.542Z,96406.97
2023-03-26T05:52:37.699Z,96405.59
2023-03-26T05:55:22.863Z,96411.53
2023-03-26T05:58:18.332Z,96401.03
2023-03-26T06:01:08.599Z,96417.69
2023-03-26T06:04:04.977Z,96409.16
2023-03-26T06:06:37.558Z,96375.22
2023-03-26T06:09:05.005Z,96398.09
2023-03-26T06:11:33.092Z,96400.28
2023-03-26T06:14:01.827Z,96409.53
2023-03-26T06:16:29.366Z,96404.97
2023-03-26T06:19:06.848Z,96430.34
2023-03-26T06:21:50.162Z,96427.09
2023-03-26T06:24:23.326Z,96435.66
2023-03-26T06:27:04.805Z,96455.03
2023-03-26T06:29:31.743Z,96451.38
2023-03-26T06:32:20.155Z,96445.66
2023-03-26T06:35:03.176Z,96448.38
2023-03-26T06:37:30.386Z,96463.16
2023-03-26T06:40:01.161Z,96435.56
2023-03-26T06:43:08.668Z,96454.94
2023-03-26T06:45:52.300Z,96426.91
2023-03-26T06:48:42.629Z,96426.09
2023-03-26T06:51:43.581Z,96432.75
2023-03-26T06:54:39.908Z,96425.66
2023-03-26T06:57:15.874Z,96428.03
2023-03-26T06:59:43.024Z,96425.22
2023-03-26T07:02:31.287Z,96423.13
2023-03-26T07:05:17.761Z,96436.47
2023-03-26T07:08:03.446Z,96432.72
2023-03-26T07:10:48.942Z,96426.28
2023-03-26T07:13:40.008Z,96439.50
2023-03-26T07:16:45.419Z,96432.72
2023-03-26T07:19:31.335Z,96427.41
2023-03-26T07:21:59.044Z,96463.16
2023-03-26T07:24:58.031Z,96447.31
2023-03-26T07:28:11.498Z,96463.03
2023-03-26T07:31:07.482Z,96459.31
2023-03-26T07:34:07.266Z,96474.34
2023-03-26T07:36:51.921Z,96460.91
2023-03-26T07:39:41.775Z,96485.34
2023-03-26T07:42:31.732Z,96476.09
2023-03-26T07:45:40.014Z,96468.19
2023-03-26T07:48:50.077Z,96485.66
2023-03-26T07:51:32.881Z,96478.66
2023-03-26T07:54:11.317Z,96475.00
2023-03-26T07:57:13.538Z,96470.00
2023-03-26T08:00:12.357Z,96468.38
2023-03-26T08:03:03.032Z,96471.41
2023-03-26T08:05:59.442Z,96462.66
2023-03-26T08:08:48.471Z,96459.13
2023-03-26T08:11:45.709Z,96450.50
2023-03-26T08:14:43.667Z,96447.78
2023-03-26T08:17:35.377Z,96444.81
2023-03-26T08:20:26.286Z,96445.66
2023-03-26T08:23:06.145Z,96444.31
2023-03-26T08:26:05.677Z,96437.94
2023-03-26T08:28:41.361Z,96444.81
2023-03-26T08:31:11.532Z,96443.63
2023-03-26T08:33:40.774Z,96452.19
2023-03-26T08:36:09.827Z,96447.31
2023-03-26T08:38:36.762Z,96410.97
2023-03-26T08:41:12.602Z,96448.84
2023-03-26T08:43:57.887Z,96442.94
2023-03-26T08:53:13.845Z,96447.41
2023-03-26T08:56:01.677Z,96442.31
2023-03-26T08:59:31.454Z,96448.34
2023-03-26T09:02:18.600Z,96445.53
2023-03-26T09:05:00.835Z,96447.41
2023-03-26T09:07:55.641Z,96447.78
2023-03-26T09:10:53.638Z,96447.63
2023-03-26T09:13:38.922Z,96442.44
2023-03-26T09:16:27.801Z,96466.91
2023-03-26T09:19:22.121Z,96451.72
2023-03-26T09:22:30.566Z,96455.25
2023-03-26T09:24:57.571Z,96459.50
2023-03-26T09:28:01.840Z,96454.00
2023-03-26T09:30:39.129Z,96447.28
2023-03-26T09:33:33.619Z,96469.31
2023-03-26T09:36:09.663Z,96469.03
2023-03-26T09:38:44.002Z,96475.38
2023-03-26T09:41:17.946Z,96470.25
2023-03-26T09:44:06.900Z,96459.28
2023-03-26T09:47:06.545Z,96459.00
2023-03-26T09:49:46.042Z,96459.72
2023-03-26T09:52:33.367Z,96449.38
2023-03-26T09:55:14.810Z,96446.31
2023-03-26T09:58:06.158Z,96455.47
2023-03-26T10:00:42.788Z,96474.41
2023-03-26T10:03:28.250Z,96468.16
2023-03-26T10:06:37.292Z,96480.84
2023-03-26T10:09:38.454Z,96461.50
2023-03-26T10:12:43.771Z,96461.53
2023-03-26T10:15:54.498Z,96461.78
2023-03-26T10:19:01.770Z,96460.94
2023-03-26T10:21:57.613Z,96447.34
2023-03-26T10:24:59.833Z,96450.66
2023-03-26T10:28:00.852Z,96431.81
2023-03-26T10:31:06.241Z,96447.59
2023-03-26T10:34:02.523Z,96439.25
2023-03-26T10:36:51.889Z,96432.13
2023-03-26T10:39:53.882Z,96425.69
2023-03-26T10:42:54.743Z,96422.28
2023-03-26T10:45:27.244Z,96412.47
2023-03-26T10:48:35.518Z,96430.38
2023-03-26T10:51:34.321Z,96401.63
2023-03-26T10:54:11.384Z,96400.16
2023-03-26T10:56:44.078Z,96390.34
2023-03-26T10:59:16.383Z,96391.72
2023-03-26T11:02:14.970Z,96374.41
2023-03-26T11:04:41.820Z,96399.06
2023-03-26T11:07:46.862Z,96366.13
2023-03-26T11:26:57.583Z,96387.47
2023-03-26T11:30:04.085Z,96374.31
2023-03-26T11:32:48.386Z,96374.38
2023-03-26T11:35:40.399Z,96372.19
2023-03-26T11:38:37.755Z,96370.53
2023-03-26T11:41:22.509Z,96356.47
2023-03-26T11:44:26.385Z,96356.19
2023-03-26T11:47:01.345Z,96341.78
2023-03-26T11:49:29.541Z,96339.78
2023-03-26T11:51:56.877Z,96300.25
2023-03-26T11:54:23.919Z,96339.94
2023-03-26T11:57:04.864Z,96340.25
2023-03-26T11:59:58.174Z,96336.25
2023-03-26T12:02:49.355Z,96326.19
2023-03-26T12:05:19.975Z,96342.72
2023-03-26T12:08:02.123Z,96320.13
2023-03-26T12:10:38.170Z,96331.69
2023-03-26T12:13:42.184Z,96334.34
2023-03-26T12:16:13.160Z,96325.97
2023-03-26T12:18:44.033Z,96330.84
2023-03-26T12:21:19.242Z,96338.28
2023-03-26T12:23:58.982Z,96326.00
2023-03-26T12:26:34.024Z,96340.66
2023-03-26T12:29:08.144Z,96325.84
2023-03-26T12:32:03.908Z,96333.56
2023-03-26T12:34:39.544Z,96334.69
2023-03-26T12:37:28.066Z,96321.28
2023-03-26T12:40:26.383Z,96340.59
2023-03-26T12:44:48.636Z,96308.78
2023-03-26T12:45:43.806Z,96328.44
2023-03-26T12:48:15.580Z,96321.44
2023-03-26T12:50:55.092Z,96315.44
2023-03-26T12:53:40.754Z,96314.66
2023-03-26T12:56:38.863Z,96315.91
2023-03-26T12:59:38.696Z,96308.25
2023-03-26T13:02:14.859Z,96322.38
2023-03-26T13:05:08.361Z,96312.44
2023-03-26T13:07:59.282Z,96300.53
2023-03-26T13:10:32.484Z,96311.88
2023-03-26T13:13:05.481Z,96308.88
2023-03-26T13:15:39.021Z,96301.28
2023-03-26T13:18:35.706Z,96302.22
2023-03-26T13:21:23.641Z,96285.13
2023-03-26T13:24:41.399Z,96301.56
2023-03-26T13:27:16.945Z,96284.50
2023-03-26T13:30:11.226Z,96291.69
2023-03-26T13:32:45.507Z,96280.94
2023-03-26T13:35:24.692Z,96290.91
2023-03-26T13:38:01.981Z,96299.47
2023-03-26T13:40:50.764Z,96282.50
2023-03-26T13:43:37.278Z,96298.78
2023-03-26T13:46:30.109Z,96276.09
2023-03-26T13:49:12.961Z,96298.78
2023-03-26T13:51:46.135Z,96293.41
2023-03-26T13:54:31.267Z,96292.91
2023-03-26T13:57:25.393Z,96297.47
2023-03-26T14:00:26.701Z,96291.53
2023-03-26T14:03:01.974Z,96293.91
2023-03-26T14:05:42.311Z,96295.31
2023-03-26T14:08:43.442Z,96288.38
2023-03-26T14:11:21.261Z,96289.75
2023-03-26T14:13:54.565Z,96288.22
2023-03-26T14:16:34.956Z,96294.84
2023-03-26T14:19:26.796Z,96295.84
2023-03-26T14:22:00.284Z,96288.06
2023-03-26T14:25:02.625Z,96301.72
2023-03-26T14:27:51.073Z,96295.28
2023-03-26T14:30:59.953Z,96299.97
2023-03-26T14:33:48.364Z,96289.75
2023-03-26T14:36:52.990Z,96291.28
2023-03-26T14:39:41.293Z,96303.19
2023-03-26T14:42:19.143Z,96287.16
2023-03-26T14:44:52.337Z,96291.03
2023-03-26T14:47:21.547Z,96288.91
2023-03-26T14:49:55.554Z,96290.69
2023-03-26T14:53:01.206Z,96294.00
2023-03-26T14:55:52.617Z,96280.34
2023-03-26T14:58:48.882Z,96284.59
2023-03-26T15:01:25.371Z,96279.66
2023-03-26T15:04:04.453Z,96287.81
2023-03-26T15:06:40.420Z,96286.13
2023-03-26T15:09:20.554Z,96288.00
2023-03-26T15:12:16.555Z,96253.09
2023-03-26T15:15:21.084Z,96274.91
2023-03-26T15:18:23.239Z,96282.44
2023-03-26T15:21:08.926Z,96282.19
2023-03-26T15:23:53.767Z,96289.06
2023-03-26T15:26:30.972Z,96279.22
2023-03-26T15:29:21.632Z,96284.13
2023-03-26T15:32:10.109Z,96274.41
2023-03-26T15:34:42.878Z,96278.50
2023-03-26T15:37:52.710Z,96272.97
2023-03-26T15:40:36.277Z,96269.44
2023-03-26T15:43:07.942Z,96270.25
2023-03-26T15:45:53.815Z,96264.69
2023-03-26T15:48:39.513Z,96267.13
2023-03-26T15:51:32.575Z,96273.78
2023-03-26T15:54:22.725Z,96290.03
2023-03-26T15:57:08.888Z,96279.16
2023-03-26T16:00:00.700Z,96286.31
2023-03-26T16:02:50.345Z,96279.41
2023-03-26T16:05:27.704Z,96279.78
2023-03-26T16:08:47.202Z,96278.19
2023-03-26T16:11:15.524Z,96280.94
2023-03-26T16:13:49.481Z,96284.63
2023-03-26T16:16:16.523Z,96284.00
2023-03-26T16:19:09.437Z,96287.88
2023-03-26T16:21:55.059Z,96289.81
2023-03-26T16:24:26.184Z,96280.09
2023-03-26T16:27:02.777Z,96288.44
2023-03-26T16:29:30.561Z,96257.63
2023-03-26T16:32:09.650Z,96288.00
2023-03-26T16:35:15.673Z,96292.19
2023-03-26T16:37:50.736Z,96304.94
2023-03-26T16:40:35.298Z,96294.34
2023-03-26T16:43:35.736Z,96300.91
2023-03-26T16:46:28.116Z,96306.16
2023-03-26T16:49:23.467Z,96288.13
2023-03-26T16:52:03.056Z,96297.88
2023-03-26T16:55:08.168Z,96308.06
2023-03-26T16:57:56.378Z,96272.00
2023-03-26T17:00:48.900Z,96318.03
2023-03-26T17:03:28.319Z,96320.66
2023-03-26T17:05:58.181Z,96321.34
2023-03-26T17:08:36.589Z,96333.72
2023-03-26T17:11:30.899Z,96293.97
2023-03-26T17:14:08.696Z,96326.84
2023-03-26T17:16:46.065Z,96323.94
2023-03-26T17:19:25.339Z,96332.63
2023-03-26T17:22:13.381Z,96338.31
2023-03-26T17:24:47.961Z,96341.25
2023-03-26T17:28:07.436Z,96334.88
2023-03-26T17:30:50.710Z,96355.75
2023-03-26T17:33:30.933Z,96351.84
2023-03-26T17:36:41.283Z,96353.63
2023-03-26T17:39:46.302Z,96357.44
2023-03-26T17:42:16.042Z,96364.53
2023-03-26T17:44:49.810Z,96356.13
2023-03-26T17:47:23.705Z,96358.97
2023-03-26T17:49:58.512Z,96347.81
2023-03-26T17:52:48.858Z,96365.75
2023-03-26T17:55:38.764Z,96376.91
2023-03-26T17:58:17.806Z,96370.94
2023-03-26T18:00:50.153Z,96376.66
2023-03-26T18:03:31.153Z,96376.88
2023-03-26T18:06:23.974Z,96363.72
2023-03-26T18:09:03.041Z,96376.00
2023-03-26T18:12:12.672Z,96374.78
2023-03-26T18:15:07.098Z,96369.66
2023-03-26T18:17:43.202Z,96369.81
2023-03-26T18:20:20.525Z,96379.72
2023-03-26T18:22:49.637Z,96372.22
2023-03-26T18:25:27.400Z,96386.69
2023-03-26T18:27:56.201Z,96389.69
2023-03-26T18:30:26.110Z,96394.31
2023-03-26T18:33:03.458Z,96403.75
2023-03-26T18:35:41.728Z,96397.09
2023-03-26T18:38:16.963Z,96392.03
2023-03-26T18:40:46.207Z,96386.41
2023-03-26T18:43:32.238Z,96389.25
2023-03-26T18:46:02.248Z,96387.25
2023-03-26T18:48:29.506Z,96371.69
2023-03-26T18:51:05.244Z,96391.16
2023-03-26T18:53:46.358Z,96389.59
2023-03-26T18:56:36.126Z,96386.03
2023-03-26T18:59:06.796Z,96380.53
2023-03-26T19:01:37.420Z,96378.81
2023-03-26T19:04:07.037Z,96377.38
2023-03-26T19:06:38.466Z,96364.56
2023-03-26T19:09:16.351Z,96373.75
2023-03-26T19:11:57.189Z,96367.31
2023-03-26T19:14:26.121Z,96353.94
2023-03-26T19:16:59.985Z,96357.09
2023-03-26T19:19:32.373Z,96354.41
2023-03-26T19:22:00.005Z,96365.84
2023-03-26T19:24:27.537Z,96363.47
2023-03-26T19:26:54.468Z,96368.75
2023-03-26T19:29:28.812Z,96372.25
2023-03-26T19:32:03.903Z,96363.50
2023-03-26T19:34:38.769Z,96361.47
2023-03-26T19:37:23.877Z,96364.69
2023-03-26T19:39:54.165Z,96355.13
2023-03-26T19:42:43.838Z,96376.44
2023-03-26T19:45:23.226Z,96379.38
2023-03-26T19:48:03.696Z,96365.00
2023-03-26T19:50:37.170Z,96370.00
2023-03-26T19:53:24.164Z,96373.53
2023-03-26T19:55:55.716Z,96359.97
2023-03-26T19:58:23.132Z,96365.94
2023-03-26T20:00:50.029Z,96359.69
2023-03-26T20:03:21.882Z,96335.63
2023-03-26T20:05:48.885Z,96341.72
2023-03-26T20:08:16.632Z,96363.34
2023-03-26T20:10:43.592Z,96361.84
2023-03-26T20:13:15.174Z,96359.81
2023-03-26T20:15:46.516Z,96364.22
2023-03-26T20:18:13.709Z,96353.75
2023-03-26T20:20:41.811Z,96358.88
2023-03-26T20:23:18.924Z,96336.16
2023-03-26T20:25:53.721Z,96337.28
2023-03-26T20:28:20.949Z,96354.34
2023-03-26T20:30:49.511Z,96343.59
2023-03-26T20:33:25.393Z,96348.00
2023-03-26T20:35:57.328Z,96352.34
2023-03-26T20:38:39.242Z,96333.69
2023-03-26T20:41:12.479Z,96348.75
2023-03-26T20:43:39.527Z,96350.00
2023-03-26T20:46:07.261Z,96345.81
2023-03-26T20:48:35.383Z,96347.16
2023-03-26T20:51:02.881Z,96346.50
2023-03-26T20:53:30.504Z,96339.16
2023-03-26T20:55:57.382Z,96341.97
2023-03-26T20:58:31.395Z,96327.09
2023-03-26T21:01:02.396Z,96354.91
2023-03-26T21:03:29.780Z,96352.63
2023-03-26T21:06:00.962Z,96355.34
2023-03-26T21:08:34.568Z,96337.22
2023-03-26T21:11:02.798Z,96316.97
2023-03-26T21:13:39.778Z,96348.28
2023-03-26T21:16:08.187Z,96335.69
2023-03-26T21:18:35.585Z,96342.47
2023-03-26T21:21:33.325Z,96338.06
2023-03-26T21:24:30.494Z,96336.94
2023-03-26T21:27:08.850Z,96312.63
2023-03-26T21:29:36.147Z,96323.72
2023-03-26T21:32:03.404Z,96319.00
2023-03-26T21:34:33.441Z,96300.22
2023-03-26T21:37:01.057Z,96327.56
2023-03-26T21:39:28.972Z,96248.91
2023-03-26T21:42:04.788Z,96319.25
2023-03-26T21:44:34.058Z,96326.69
2023-03-26T21:47:01.307Z,96325.66
2023-03-26T21:49:28.665Z,96332.97
2023-03-26T21:51:55.877Z,96319.03
2023-03-26T21:54:31.652Z,96291.38
2023-03-26T21:57:44.990Z,96312.50
2023-03-26T22:00:15.300Z,96318.50
2023-03-26T22:03:03.720Z,96326.28
2023-03-26T22:05:52.000Z,96327.28
2023-03-26T22:08:29.759Z,96320.78
2023-03-26T22:10:57.091Z,96326.44
2023-03-26T22:13:24.797Z,96317.63
2023-03-26T22:15:51.896Z,96321.69
2023-03-26T22:18:21.727Z,96319.22
2023-03-26T22:20:49.281Z,96307.78
2023-03-26T22:23:19.924Z,96316.19
2023-03-26T22:25:47.052Z,96302.78
2023-03-26T22:28:14.664Z,96306.66
2023-03-26T22:30:42.221Z,96291.09
2023-03-26T22:33:11.077Z,96297.81
2023-03-26T22:35:39.151Z,96294.72
2023-03-26T22:38:06.963Z,96292.53
2023-03-26T22:40:33.896Z,96285.25
2023-03-26T22:43:00.785Z,96287.44
2023-03-26T22:45:28.026Z,96300.59
2023-03-26T22:48:03.982Z,96299.91
2023-03-26T22:50:32.408Z,96287.25
2023-03-26T22:52:59.247Z,96290.38
2023-03-26T22:55:28.339Z,96279.59
2023-03-26T22:57:56.941Z,96281.91
2023-03-26T23:00:26.389Z,96279.72
2023-03-26T23:02:55.975Z,96270.06
2023-03-26T23:05:23.678Z,96262.72
2023-03-26T23:07:51.939Z,96256.66
2023-03-26T23:10:18.928Z,96260.91
2023-03-26T23:12:45.806Z,96247.53
2023-03-26T23:15:13.102Z,96251.53
2023-03-26T23:17:40.766Z,96258.31
2023-03-26T23:20:17.474Z,96269.38
2023-03-26T23:22:44.715Z,96263.91
2023-03-26T23:25:11.989Z,96267.00
2023-03-26T23:27:40.313Z,96268.59
2023-03-26T23:30:08.249Z,96271.81
2023-03-26T23:32:38.107Z,96264.06
2023-03-26T23:35:06.079Z,96272.06
2023-03-26T23:37:35.089Z,96265.66
2023-03-26T23:40:07.263Z,96248.34
2023-03-26T23:42:34.583Z,96259.19
2023-03-26T23:45:02.010Z,96247.59
2023-03-26T23:47:34.677Z,96226.88
2023-03-26T23:50:02.683Z,96237.88
2023-03-26T23:52:30.987Z,96229.06
2023-03-26T23:55:01.232Z,96218.56
2023-03-26T23:57:30.537Z,96223.47
2023-03-26T23:59:57.944Z,96219.91
